sensor_id;sensor_type;location;lat;lon;timestamp;temperature;humidity
10149;DHT22;5115;50.920;6.376;2022-11-12T00:19:15;6.90;99.90
10149;DHT22;5115;50.920;6.376;2022-11-12T00:46:00;6.60;99.90
10149;DHT22;5115;50.920;6.376;2022-11-12T00:50:59;6.60;99.90
10149;DHT22;5115;50.920;6.376;2022-11-12T00:55:50;6.40;99.90
10149;DHT22;5115;50.920;6.376;2022-11-12T01:10:25;6.30;99.90
10149;DHT22;5115;50.920;6.376;2022-11-12T01:44:33;6.40;99.90
10149;DHT22;5115;50.920;6.376;2022-11-12T01:47:06;6.40;99.90
10149;DHT22;5115;50.920;6.376;2022-11-12T01:49:43;6.30;99.90
10149;DHT22;5115;50.920;6.376;2022-11-12T01:52:23;6.30;99.90
10149;DHT22;5115;50.920;6.376;2022-11-12T01:54:53;6.20;99.90
10149;DHT22;5115;50.920;6.376;2022-11-12T01:57:28;6.30;99.90
10149;DHT22;5115;50.920;6.376;2022-11-12T01:59:59;6.20;99.90
10149;DHT22;5115;50.920;6.376;2022-11-12T02:02:26;6.30;99.90
10149;DHT22;5115;50.920;6.376;2022-11-12T02:04:52;6.30;99.90
10149;DHT22;5115;50.920;6.376;2022-11-12T02:07:21;6.40;99.90
10149;DHT22;5115;50.920;6.376;2022-11-12T02:19:51;6.10;99.90
10149;DHT22;5115;50.920;6.376;2022-11-12T02:27:10;6.10;99.90
10149;DHT22;5115;50.920;6.376;2022-11-12T02:32:13;6.10;99.90
10149;DHT22;5115;50.920;6.376;2022-11-12T02:34:39;6.10;99.90
10149;DHT22;5115;50.920;6.376;2022-11-12T02:37:06;6.10;99.90
10149;DHT22;5115;50.920;6.376;2022-11-12T03:08:44;5.80;99.90
10149;DHT22;5115;50.920;6.376;2022-11-12T03:11:12;5.90;99.90
10149;DHT22;5115;50.920;6.376;2022-11-12T03:13:38;5.90;99.90
10149;DHT22;5115;50.920;6.376;2022-11-12T03:16:04;6.00;99.90
10149;DHT22;5115;50.920;6.376;2022-11-12T03:28:15;6.00;99.90
10149;DHT22;5115;50.920;6.376;2022-11-12T03:30:42;6.00;99.90
10149;DHT22;5115;50.920;6.376;2022-11-12T03:33:09;6.00;99.90
10149;DHT22;5115;50.920;6.376;2022-11-12T03:38:01;6.10;99.90
10149;DHT22;5115;50.920;6.376;2022-11-12T03:40:28;6.10;99.90
10149;DHT22;5115;50.920;6.376;2022-11-12T03:45:22;6.10;99.90
10149;DHT22;5115;50.920;6.376;2022-11-12T03:47:49;6.00;99.90
10149;DHT22;5115;50.920;6.376;2022-11-12T03:50:16;6.00;99.90
10149;DHT22;5115;50.920;6.376;2022-11-12T03:52:47;6.00;99.90
10149;DHT22;5115;50.920;6.376;2022-11-12T03:55:15;6.00;99.90
10149;DHT22;5115;50.920;6.376;2022-11-12T04:00:09;6.00;99.90
10149;DHT22;5115;50.920;6.376;2022-11-12T04:07:59;5.90;99.90
10149;DHT22;5115;50.920;6.376;2022-11-12T04:24:17;5.90;99.90
10149;DHT22;5115;50.920;6.376;2022-11-12T04:27:19;5.90;99.90
10149;DHT22;5115;50.920;6.376;2022-11-12T04:29:46;5.90;99.90
10149;DHT22;5115;50.920;6.376;2022-11-12T04:32:32;5.70;99.90
10149;DHT22;5115;50.920;6.376;2022-11-12T04:37:26;5.80;99.90
10149;DHT22;5115;50.920;6.376;2022-11-12T04:42:18;5.90;99.90
10149;DHT22;5115;50.920;6.376;2022-11-12T04:45:06;5.90;99.90
10149;DHT22;5115;50.920;6.376;2022-11-12T04:52:25;6.00;99.90
10149;DHT22;5115;50.920;6.376;2022-11-12T05:02:09;6.00;99.90
10149;DHT22;5115;50.920;6.376;2022-11-12T05:09:28;6.10;99.90
10149;DHT22;5115;50.920;6.376;2022-11-12T05:11:54;6.10;99.90
10149;DHT22;5115;50.920;6.376;2022-11-12T05:14:20;6.00;99.90
10149;DHT22;5115;50.920;6.376;2022-11-12T05:21:38;6.00;99.90
10149;DHT22;5115;50.920;6.376;2022-11-12T05:24:23;5.90;99.90
10149;DHT22;5115;50.920;6.376;2022-11-12T05:41:24;5.80;99.90
10149;DHT22;5115;50.920;6.376;2022-11-12T05:56:05;5.70;99.90
10149;DHT22;5115;50.920;6.376;2022-11-12T05:58:31;5.70;99.90
10149;DHT22;5115;50.920;6.376;2022-11-12T06:00:58;5.80;99.90
10149;DHT22;5115;50.920;6.376;2022-11-12T06:05:50;5.70;99.90
10149;DHT22;5115;50.920;6.376;2022-11-12T06:10:43;5.70;99.90
10149;DHT22;5115;50.920;6.376;2022-11-12T06:44:49;5.60;99.90
10149;DHT22;5115;50.920;6.376;2022-11-12T07:14:04;6.00;99.90
10149;DHT22;5115;50.920;6.376;2022-11-12T07:31:09;8.90;99.90
10149;DHT22;5115;50.920;6.376;2022-11-12T07:36:08;10.10;99.90
10149;DHT22;5115;50.920;6.376;2022-11-12T07:38:39;10.60;99.90
10149;DHT22;5115;50.920;6.376;2022-11-12T07:41:06;10.90;99.90
10149;DHT22;5115;50.920;6.376;2022-11-12T07:43:34;11.30;99.90
10149;DHT22;5115;50.920;6.376;2022-11-12T07:46:01;11.70;99.90
10149;DHT22;5115;50.920;6.376;2022-11-12T07:48:28;12.00;99.90
10149;DHT22;5115;50.920;6.376;2022-11-12T07:51:15;12.30;99.90
10149;DHT22;5115;50.920;6.376;2022-11-12T07:53:41;12.50;99.90
10149;DHT22;5115;50.920;6.376;2022-11-12T07:56:16;13.00;99.90
10149;DHT22;5115;50.920;6.376;2022-11-12T07:58:42;13.10;99.90
10149;DHT22;5115;50.920;6.376;2022-11-12T08:03:53;16.30;99.90
10149;DHT22;5115;50.920;6.376;2022-11-12T08:06:18;17.10;99.90
10149;DHT22;5115;50.920;6.376;2022-11-12T08:08:44;17.20;99.90
10149;DHT22;5115;50.920;6.376;2022-11-12T08:11:09;17.30;99.90
10149;DHT22;5115;50.920;6.376;2022-11-12T08:13:35;17.50;99.90
10149;DHT22;5115;50.920;6.376;2022-11-12T08:16:01;17.50;99.90
10149;DHT22;5115;50.920;6.376;2022-11-12T08:18:26;17.50;99.90
10149;DHT22;5115;50.920;6.376;2022-11-12T08:20:58;17.60;99.90
10149;DHT22;5115;50.920;6.376;2022-11-12T08:23:24;17.50;99.90
10149;DHT22;5115;50.920;6.376;2022-11-12T08:25:50;17.70;99.90
10149;DHT22;5115;50.920;6.376;2022-11-12T08:28:16;18.00;99.90
10149;DHT22;5115;50.920;6.376;2022-11-12T08:30:41;18.30;99.90
10149;DHT22;5115;50.920;6.376;2022-11-12T08:33:07;18.80;99.90
10149;DHT22;5115;50.920;6.376;2022-11-12T08:35:32;19.00;99.90
10149;DHT22;5115;50.920;6.376;2022-11-12T08:40:24;20.30;99.90
10149;DHT22;5115;50.920;6.376;2022-11-12T08:42:59;20.80;99.90
10149;DHT22;5115;50.920;6.376;2022-11-12T08:45:26;21.20;99.90
10149;DHT22;5115;50.920;6.376;2022-11-12T08:57:41;19.60;99.90
10149;DHT22;5115;50.920;6.376;2022-11-12T09:00:09;20.40;99.90
10149;DHT22;5115;50.920;6.376;2022-11-12T09:02:35;21.20;99.90
10149;DHT22;5115;50.920;6.376;2022-11-12T09:05:00;21.50;99.90
10149;DHT22;5115;50.920;6.376;2022-11-12T09:07:26;22.60;99.90
10149;DHT22;5115;50.920;6.376;2022-11-12T09:09:51;22.70;99.90
10149;DHT22;5115;50.920;6.376;2022-11-12T09:12:17;23.30;99.90
10149;DHT22;5115;50.920;6.376;2022-11-12T09:14:44;20.60;99.90
10149;DHT22;5115;50.920;6.376;2022-11-12T09:17:10;22.60;99.90
10149;DHT22;5115;50.920;6.376;2022-11-12T09:19:36;23.00;99.90
10149;DHT22;5115;50.920;6.376;2022-11-12T09:22:02;22.00;99.90
10149;DHT22;5115;50.920;6.376;2022-11-12T09:24:27;21.20;99.90
10149;DHT22;5115;50.920;6.376;2022-11-12T09:26:53;21.20;99.90
10149;DHT22;5115;50.920;6.376;2022-11-12T09:29:19;23.20;99.90
10149;DHT22;5115;50.920;6.376;2022-11-12T09:31:44;23.10;99.90
10149;DHT22;5115;50.920;6.376;2022-11-12T09:34:10;21.70;99.90
10149;DHT22;5115;50.920;6.376;2022-11-12T09:36:35;21.90;99.90
10149;DHT22;5115;50.920;6.376;2022-11-12T09:39:01;22.20;99.90
10149;DHT22;5115;50.920;6.376;2022-11-12T09:41:37;21.90;99.90
10149;DHT22;5115;50.920;6.376;2022-11-12T09:44:08;22.00;99.90
10149;DHT22;5115;50.920;6.376;2022-11-12T09:49:31;21.70;99.90
10149;DHT22;5115;50.920;6.376;2022-11-12T09:52:02;22.00;99.90
10149;DHT22;5115;50.920;6.376;2022-11-12T09:54:33;22.20;99.90
10149;DHT22;5115;50.920;6.376;2022-11-12T09:57:00;22.40;99.90
10149;DHT22;5115;50.920;6.376;2022-11-12T09:59:31;22.50;99.90
10149;DHT22;5115;50.920;6.376;2022-11-12T10:02:34;21.90;99.90
10149;DHT22;5115;50.920;6.376;2022-11-12T10:05:35;21.60;99.90
10149;DHT22;5115;50.920;6.376;2022-11-12T10:13:47;21.40;99.90
10149;DHT22;5115;50.920;6.376;2022-11-12T10:22:17;21.00;99.90
10149;DHT22;5115;50.920;6.376;2022-11-12T10:24:48;20.70;99.90
10149;DHT22;5115;50.920;6.376;2022-11-12T10:29:50;21.80;99.90
10149;DHT22;5115;50.920;6.376;2022-11-12T10:32:19;21.10;99.90
10149;DHT22;5115;50.920;6.376;2022-11-12T10:34:45;20.70;99.90
10149;DHT22;5115;50.920;6.376;2022-11-12T10:37:23;20.90;99.90
10149;DHT22;5115;50.920;6.376;2022-11-12T10:39:50;19.40;99.90
10149;DHT22;5115;50.920;6.376;2022-11-12T10:42:19;18.50;99.90
10149;DHT22;5115;50.920;6.376;2022-11-12T10:44:45;18.40;99.90
10149;DHT22;5115;50.920;6.376;2022-11-12T10:50:02;18.40;99.90
10149;DHT22;5115;50.920;6.376;2022-11-12T10:52:27;18.70;99.90
10149;DHT22;5115;50.920;6.376;2022-11-12T10:55:19;18.40;99.90
10149;DHT22;5115;50.920;6.376;2022-11-12T10:57:45;18.30;99.90
10149;DHT22;5115;50.920;6.376;2022-11-12T11:00:18;17.90;99.90
10149;DHT22;5115;50.920;6.376;2022-11-12T11:02:54;18.00;99.90
10149;DHT22;5115;50.920;6.376;2022-11-12T11:07:53;17.50;99.90
10149;DHT22;5115;50.920;6.376;2022-11-12T11:10:28;17.70;99.90
10149;DHT22;5115;50.920;6.376;2022-11-12T11:13:20;17.60;99.90
10149;DHT22;5115;50.920;6.376;2022-11-12T11:16:08;17.40;99.90
10149;DHT22;5115;50.920;6.376;2022-11-12T11:18:37;18.30;99.90
10149;DHT22;5115;50.920;6.376;2022-11-12T11:27:03;16.70;99.90
10149;DHT22;5115;50.920;6.376;2022-11-12T11:29:37;16.80;99.90
10149;DHT22;5115;50.920;6.376;2022-11-12T11:32:36;17.00;99.90
10149;DHT22;5115;50.920;6.376;2022-11-12T11:46:57;16.60;99.90
10149;DHT22;5115;50.920;6.376;2022-11-12T11:58:03;16.70;99.90
10149;DHT22;5115;50.920;6.376;2022-11-12T12:00:59;16.40;99.90
10149;DHT22;5115;50.920;6.376;2022-11-12T12:06:21;16.40;99.90
10149;DHT22;5115;50.920;6.376;2022-11-12T12:11:45;16.40;99.90
10149;DHT22;5115;50.920;6.376;2022-11-12T12:14:31;16.30;99.90
10149;DHT22;5115;50.920;6.376;2022-11-12T12:19:56;16.20;99.90
10149;DHT22;5115;50.920;6.376;2022-11-12T12:22:46;17.30;99.90
10149;DHT22;5115;50.920;6.376;2022-11-12T12:25:22;15.60;99.90
10149;DHT22;5115;50.920;6.376;2022-11-12T12:27:56;15.60;99.90
10149;DHT22;5115;50.920;6.376;2022-11-12T12:30:28;15.70;99.90
10149;DHT22;5115;50.920;6.376;2022-11-12T12:32:58;15.70;99.90
10149;DHT22;5115;50.920;6.376;2022-11-12T12:35:39;15.80;99.90
10149;DHT22;5115;50.920;6.376;2022-11-12T12:41:11;15.60;99.90
10149;DHT22;5115;50.920;6.376;2022-11-12T12:43:54;17.00;99.90
10149;DHT22;5115;50.920;6.376;2022-11-12T12:46:24;15.50;99.90
10149;DHT22;5115;50.920;6.376;2022-11-12T12:48:52;16.00;99.90
10149;DHT22;5115;50.920;6.376;2022-11-12T12:51:18;15.60;99.90
10149;DHT22;5115;50.920;6.376;2022-11-12T12:53:45;18.00;99.90
10149;DHT22;5115;50.920;6.376;2022-11-12T13:09:05;16.70;99.90
10149;DHT22;5115;50.920;6.376;2022-11-12T13:19:37;15.40;99.90
10149;DHT22;5115;50.920;6.376;2022-11-12T13:32:56;15.20;99.90
10149;DHT22;5115;50.920;6.376;2022-11-12T13:35:33;15.10;99.90
10149;DHT22;5115;50.920;6.376;2022-11-12T13:38:12;15.10;99.90
10149;DHT22;5115;50.920;6.376;2022-11-12T13:43:45;15.20;99.90
10149;DHT22;5115;50.920;6.376;2022-11-12T13:46:33;15.20;99.90
10149;DHT22;5115;50.920;6.376;2022-11-12T13:49:02;15.10;99.90
10149;DHT22;5115;50.920;6.376;2022-11-12T13:53:57;15.10;99.90
10149;DHT22;5115;50.920;6.376;2022-11-12T13:56:27;15.20;99.90
10149;DHT22;5115;50.920;6.376;2022-11-12T13:59:17;16.40;99.90
10149;DHT22;5115;50.920;6.376;2022-11-12T14:01:43;15.40;99.90
10149;DHT22;5115;50.920;6.376;2022-11-12T14:04:15;15.40;99.90
10149;DHT22;5115;50.920;6.376;2022-11-12T14:06:46;15.40;99.90
10149;DHT22;5115;50.920;6.376;2022-11-12T14:12:34;15.50;99.90
10149;DHT22;5115;50.920;6.376;2022-11-12T14:20:47;15.30;99.90
10149;DHT22;5115;50.920;6.376;2022-11-12T14:23:18;15.40;99.90
10149;DHT22;5115;50.920;6.376;2022-11-12T14:25:51;15.40;99.90
10149;DHT22;5115;50.920;6.376;2022-11-12T14:30:55;15.60;99.90
10149;DHT22;5115;50.920;6.376;2022-11-12T14:33:24;15.40;99.90
10149;DHT22;5115;50.920;6.376;2022-11-12T14:35:51;15.40;99.90
10149;DHT22;5115;50.920;6.376;2022-11-12T14:38:21;15.40;99.90
10149;DHT22;5115;50.920;6.376;2022-11-12T14:40:54;15.50;99.90
10149;DHT22;5115;50.920;6.376;2022-11-12T14:43:42;15.60;99.90
10149;DHT22;5115;50.920;6.376;2022-11-12T14:47:12;15.40;99.90
10149;DHT22;5115;50.920;6.376;2022-11-12T14:49:36;15.30;99.90
10149;DHT22;5115;50.920;6.376;2022-11-12T14:52:27;15.30;99.90
10149;DHT22;5115;50.920;6.376;2022-11-12T14:54:57;15.20;99.90
10149;DHT22;5115;50.920;6.376;2022-11-12T14:57:30;15.10;99.90
10149;DHT22;5115;50.920;6.376;2022-11-12T14:59:56;15.20;99.90
10149;DHT22;5115;50.920;6.376;2022-11-12T15:02:28;15.20;99.90
10149;DHT22;5115;50.920;6.376;2022-11-12T15:05:01;15.30;99.90
10149;DHT22;5115;50.920;6.376;2022-11-12T15:07:50;15.10;99.90
10149;DHT22;5115;50.920;6.376;2022-11-12T15:13:20;15.00;99.90
10149;DHT22;5115;50.920;6.376;2022-11-12T15:15:54;14.90;99.90
10149;DHT22;5115;50.920;6.376;2022-11-12T15:18:26;14.80;99.90
10149;DHT22;5115;50.920;6.376;2022-11-12T15:21:18;14.80;99.90
10149;DHT22;5115;50.920;6.376;2022-11-12T15:23:50;14.90;99.90
10149;DHT22;5115;50.920;6.376;2022-11-12T15:26:33;14.80;99.90
10149;DHT22;5115;50.920;6.376;2022-11-12T15:29:10;14.60;99.90
10149;DHT22;5115;50.920;6.376;2022-11-12T15:31:49;14.60;99.90
10149;DHT22;5115;50.920;6.376;2022-11-12T15:34:24;14.50;99.90
10149;DHT22;5115;50.920;6.376;2022-11-12T15:36:51;14.50;99.90
10149;DHT22;5115;50.920;6.376;2022-11-12T15:39:20;14.40;99.90
10149;DHT22;5115;50.920;6.376;2022-11-12T15:41:58;14.40;99.90
10149;DHT22;5115;50.920;6.376;2022-11-12T15:44:24;14.30;99.90
10149;DHT22;5115;50.920;6.376;2022-11-12T15:46:52;14.10;99.90
10149;DHT22;5115;50.920;6.376;2022-11-12T15:49:30;14.10;99.90
10149;DHT22;5115;50.920;6.376;2022-11-12T15:51:59;14.90;99.90
10149;DHT22;5115;50.920;6.376;2022-11-12T15:54:24;14.00;99.90
10149;DHT22;5115;50.920;6.376;2022-11-12T15:56:58;13.90;99.90
10149;DHT22;5115;50.920;6.376;2022-11-12T15:59:28;13.90;99.90
10149;DHT22;5115;50.920;6.376;2022-11-12T16:01:54;13.90;99.90
10149;DHT22;5115;50.920;6.376;2022-11-12T16:04:20;13.90;99.90
10149;DHT22;5115;50.920;6.376;2022-11-12T16:07:00;14.60;99.90
10149;DHT22;5115;50.920;6.376;2022-11-12T16:09:28;13.80;99.90
10149;DHT22;5115;50.920;6.376;2022-11-12T16:11:56;13.80;99.90
10149;DHT22;5115;50.920;6.376;2022-11-12T16:14:31;13.70;99.90
10149;DHT22;5115;50.920;6.376;2022-11-12T16:16:59;13.60;99.90
10149;DHT22;5115;50.920;6.376;2022-11-12T16:21:59;13.60;99.90
10149;DHT22;5115;50.920;6.376;2022-11-12T16:24:24;13.60;99.90
10149;DHT22;5115;50.920;6.376;2022-11-12T16:26:51;15.90;99.90
10149;DHT22;5115;50.920;6.376;2022-11-12T16:29:16;13.50;99.90
10149;DHT22;5115;50.920;6.376;2022-11-12T16:31:45;13.50;99.90
10149;DHT22;5115;50.920;6.376;2022-11-12T16:34:11;13.50;99.90
10149;DHT22;5115;50.920;6.376;2022-11-12T16:36:39;14.70;99.90
10149;DHT22;5115;50.920;6.376;2022-11-12T16:39:05;13.50;99.90
10149;DHT22;5115;50.920;6.376;2022-11-12T16:41:31;13.50;99.90
10149;DHT22;5115;50.920;6.376;2022-11-12T16:43:57;13.40;99.90
10149;DHT22;5115;50.920;6.376;2022-11-12T16:46:29;13.40;99.90
10149;DHT22;5115;50.920;6.376;2022-11-12T16:48:55;13.30;99.90
10149;DHT22;5115;50.920;6.376;2022-11-12T16:51:22;13.30;99.90
10149;DHT22;5115;50.920;6.376;2022-11-12T16:53:47;13.40;99.90
10149;DHT22;5115;50.920;6.376;2022-11-12T16:56:19;13.40;99.90
10149;DHT22;5115;50.920;6.376;2022-11-12T16:58:46;13.40;99.90
10149;DHT22;5115;50.920;6.376;2022-11-12T17:03:48;13.30;99.90
10149;DHT22;5115;50.920;6.376;2022-11-12T17:06:17;13.30;99.90
10149;DHT22;5115;50.920;6.376;2022-11-12T17:08:46;13.30;99.90
10149;DHT22;5115;50.920;6.376;2022-11-12T17:11:14;13.20;99.90
10149;DHT22;5115;50.920;6.376;2022-11-12T17:16:07;13.20;99.90
10149;DHT22;5115;50.920;6.376;2022-11-12T17:18:33;13.20;99.90
10149;DHT22;5115;50.920;6.376;2022-11-12T17:21:10;13.20;99.90
10149;DHT22;5115;50.920;6.376;2022-11-12T17:23:36;13.20;99.90
10149;DHT22;5115;50.920;6.376;2022-11-12T17:26:03;13.20;99.90
10149;DHT22;5115;50.920;6.376;2022-11-12T17:28:30;13.20;99.90
10149;DHT22;5115;50.920;6.376;2022-11-12T17:33:35;13.20;99.90
10149;DHT22;5115;50.920;6.376;2022-11-12T17:36:03;13.20;99.90
10149;DHT22;5115;50.920;6.376;2022-11-12T17:38:29;13.10;99.90
10149;DHT22;5115;50.920;6.376;2022-11-12T17:40:57;13.80;99.90
10149;DHT22;5115;50.920;6.376;2022-11-12T17:43:24;13.00;99.90
10149;DHT22;5115;50.920;6.376;2022-11-12T17:45:58;13.00;99.90
10149;DHT22;5115;50.920;6.376;2022-11-12T17:48:32;13.00;99.90
10149;DHT22;5115;50.920;6.376;2022-11-12T17:51:25;14.30;99.90
10149;DHT22;5115;50.920;6.376;2022-11-12T17:56:27;13.00;99.90
10149;DHT22;5115;50.920;6.376;2022-11-12T17:58:53;13.00;99.90
10149;DHT22;5115;50.920;6.376;2022-11-12T18:01:20;13.00;99.90
10149;DHT22;5115;50.920;6.376;2022-11-12T18:03:48;13.30;99.90
10149;DHT22;5115;50.920;6.376;2022-11-12T18:06:26;13.80;99.90
10149;DHT22;5115;50.920;6.376;2022-11-12T18:09:00;13.10;99.90
10149;DHT22;5115;50.920;6.376;2022-11-12T18:12:02;13.00;99.90
10149;DHT22;5115;50.920;6.376;2022-11-12T18:14:31;13.00;99.90
10149;DHT22;5115;50.920;6.376;2022-11-12T18:17:00;14.50;99.90
10149;DHT22;5115;50.920;6.376;2022-11-12T18:19:25;13.00;99.90
10149;DHT22;5115;50.920;6.376;2022-11-12T18:21:57;12.90;99.90
10149;DHT22;5115;50.920;6.376;2022-11-12T18:24:32;12.80;99.90
10149;DHT22;5115;50.920;6.376;2022-11-12T18:27:04;12.80;99.90
10149;DHT22;5115;50.920;6.376;2022-11-12T18:29:35;12.80;99.90
10149;DHT22;5115;50.920;6.376;2022-11-12T18:32:16;12.80;99.90
10149;DHT22;5115;50.920;6.376;2022-11-12T18:34:45;12.60;99.90
10149;DHT22;5115;50.920;6.376;2022-11-12T18:37:19;12.70;99.90
10149;DHT22;5115;50.920;6.376;2022-11-12T18:40:09;12.70;99.90
10149;DHT22;5115;50.920;6.376;2022-11-12T18:42:37;12.60;99.90
10149;DHT22;5115;50.920;6.376;2022-11-12T18:45:29;12.50;99.90
10149;DHT22;5115;50.920;6.376;2022-11-12T18:47:57;12.50;99.90
10149;DHT22;5115;50.920;6.376;2022-11-12T18:50:26;12.50;99.90
10149;DHT22;5115;50.920;6.376;2022-11-12T18:53:09;12.40;99.90
10149;DHT22;5115;50.920;6.376;2022-11-12T18:55:58;12.30;99.90
10149;DHT22;5115;50.920;6.376;2022-11-12T18:58:33;12.30;99.90
10149;DHT22;5115;50.920;6.376;2022-11-12T19:01:12;12.30;99.90
10149;DHT22;5115;50.920;6.376;2022-11-12T19:03:54;12.30;99.90
10149;DHT22;5115;50.920;6.376;2022-11-12T19:06:32;12.30;99.90
10149;DHT22;5115;50.920;6.376;2022-11-12T19:09:01;12.30;99.90
10149;DHT22;5115;50.920;6.376;2022-11-12T19:11:30;12.20;99.90
10149;DHT22;5115;50.920;6.376;2022-11-12T19:14:04;12.30;99.90
10149;DHT22;5115;50.920;6.376;2022-11-12T19:16:33;12.20;99.90
10149;DHT22;5115;50.920;6.376;2022-11-12T19:18:59;12.30;99.90
10149;DHT22;5115;50.920;6.376;2022-11-12T19:21:30;12.30;99.90
10149;DHT22;5115;50.920;6.376;2022-11-12T19:23:59;12.30;99.90
10149;DHT22;5115;50.920;6.376;2022-11-12T19:26:25;12.30;99.90
10149;DHT22;5115;50.920;6.376;2022-11-12T19:28:54;12.20;99.90
10149;DHT22;5115;50.920;6.376;2022-11-12T19:31:24;12.20;99.90
10149;DHT22;5115;50.920;6.376;2022-11-12T19:33:50;14.00;99.90
10149;DHT22;5115;50.920;6.376;2022-11-12T19:36:19;12.20;99.90
10149;DHT22;5115;50.920;6.376;2022-11-12T19:38:45;12.20;99.90
10149;DHT22;5115;50.920;6.376;2022-11-12T19:41:15;12.20;99.90
10149;DHT22;5115;50.920;6.376;2022-11-12T19:43:42;12.20;99.90
10149;DHT22;5115;50.920;6.376;2022-11-12T19:46:08;12.20;99.90
10149;DHT22;5115;50.920;6.376;2022-11-12T19:48:35;12.10;99.90
10149;DHT22;5115;50.920;6.376;2022-11-12T19:51:06;12.10;99.90
10149;DHT22;5115;50.920;6.376;2022-11-12T19:53:44;12.10;99.90
10149;DHT22;5115;50.920;6.376;2022-11-12T19:56:17;12.10;99.90
10149;DHT22;5115;50.920;6.376;2022-11-12T19:58:46;12.00;99.90
10149;DHT22;5115;50.920;6.376;2022-11-12T20:01:14;12.00;99.90
10149;DHT22;5115;50.920;6.376;2022-11-12T20:03:46;12.00;99.90
10149;DHT22;5115;50.920;6.376;2022-11-12T20:06:24;12.10;99.90
10149;DHT22;5115;50.920;6.376;2022-11-12T20:09:06;12.00;99.90
10149;DHT22;5115;50.920;6.376;2022-11-12T20:11:37;12.00;99.90
10149;DHT22;5115;50.920;6.376;2022-11-12T20:14:23;12.00;99.90
10149;DHT22;5115;50.920;6.376;2022-11-12T20:17:00;12.00;99.90
10149;DHT22;5115;50.920;6.376;2022-11-12T20:19:30;11.80;99.90
10149;DHT22;5115;50.920;6.376;2022-11-12T20:21:58;11.80;99.90
10149;DHT22;5115;50.920;6.376;2022-11-12T20:24:30;11.80;99.90
10149;DHT22;5115;50.920;6.376;2022-11-12T20:26:59;11.70;99.90
10149;DHT22;5115;50.920;6.376;2022-11-12T20:29:32;11.70;99.90
10149;DHT22;5115;50.920;6.376;2022-11-12T20:32:01;11.80;99.90
10149;DHT22;5115;50.920;6.376;2022-11-12T20:34:40;11.70;99.90
10149;DHT22;5115;50.920;6.376;2022-11-12T20:37:11;11.70;99.90
10149;DHT22;5115;50.920;6.376;2022-11-12T20:39:45;11.70;99.90
10149;DHT22;5115;50.920;6.376;2022-11-12T20:42:17;11.80;99.90
10149;DHT22;5115;50.920;6.376;2022-11-12T20:44:43;11.80;99.90
10149;DHT22;5115;50.920;6.376;2022-11-12T20:47:12;11.90;99.90
10149;DHT22;5115;50.920;6.376;2022-11-12T20:49:44;11.80;99.90
10149;DHT22;5115;50.920;6.376;2022-11-12T20:52:15;11.80;99.90
10149;DHT22;5115;50.920;6.376;2022-11-12T20:54:47;11.80;99.90
10149;DHT22;5115;50.920;6.376;2022-11-12T20:57:30;11.70;99.90
10149;DHT22;5115;50.920;6.376;2022-11-12T21:00:01;11.70;99.90
10149;DHT22;5115;50.920;6.376;2022-11-12T21:02:29;11.60;99.90
10149;DHT22;5115;50.920;6.376;2022-11-12T21:04:55;11.70;99.90
10149;DHT22;5115;50.920;6.376;2022-11-12T21:07:24;11.40;99.90
10149;DHT22;5115;50.920;6.376;2022-11-12T21:09:52;11.50;99.90
10149;DHT22;5115;50.920;6.376;2022-11-12T21:12:18;11.50;99.90
10149;DHT22;5115;50.920;6.376;2022-11-12T21:14:43;11.60;99.90
10149;DHT22;5115;50.920;6.376;2022-11-12T21:17:11;11.50;99.90
10149;DHT22;5115;50.920;6.376;2022-11-12T21:19:40;11.50;99.90
10149;DHT22;5115;50.920;6.376;2022-11-12T21:22:08;11.40;99.90
10149;DHT22;5115;50.920;6.376;2022-11-12T21:24:34;11.40;99.90
10149;DHT22;5115;50.920;6.376;2022-11-12T21:26:59;11.40;99.90
10149;DHT22;5115;50.920;6.376;2022-11-12T21:29:25;11.40;99.90
10149;DHT22;5115;50.920;6.376;2022-11-12T21:31:51;11.40;99.90
10149;DHT22;5115;50.920;6.376;2022-11-12T21:34:17;11.40;99.90
10149;DHT22;5115;50.920;6.376;2022-11-12T21:36:42;11.40;99.90
10149;DHT22;5115;50.920;6.376;2022-11-12T21:41:36;11.30;99.90
10149;DHT22;5115;50.920;6.376;2022-11-12T21:44:02;11.30;99.90
10149;DHT22;5115;50.920;6.376;2022-11-12T21:46:29;11.30;99.90
10149;DHT22;5115;50.920;6.376;2022-11-12T21:48:55;11.30;99.90
10149;DHT22;5115;50.920;6.376;2022-11-12T21:51:24;11.20;99.90
10149;DHT22;5115;50.920;6.376;2022-11-12T21:54:04;11.20;99.90
10149;DHT22;5115;50.920;6.376;2022-11-12T21:56:30;11.20;99.90
10149;DHT22;5115;50.920;6.376;2022-11-12T21:58:57;11.20;99.90
10149;DHT22;5115;50.920;6.376;2022-11-12T22:01:26;11.20;99.90
10149;DHT22;5115;50.920;6.376;2022-11-12T22:03:54;11.10;99.90
10149;DHT22;5115;50.920;6.376;2022-11-12T22:06:23;11.10;99.90
10149;DHT22;5115;50.920;6.376;2022-11-12T22:08:53;11.00;99.90
10149;DHT22;5115;50.920;6.376;2022-11-12T22:11:19;11.00;99.90
10149;DHT22;5115;50.920;6.376;2022-11-12T22:16:13;11.10;99.90
10149;DHT22;5115;50.920;6.376;2022-11-12T22:18:40;11.10;99.90
10149;DHT22;5115;50.920;6.376;2022-11-12T22:21:14;11.10;99.90
10149;DHT22;5115;50.920;6.376;2022-11-12T22:23:40;11.10;99.90
10149;DHT22;5115;50.920;6.376;2022-11-12T22:26:09;11.10;99.90
10149;DHT22;5115;50.920;6.376;2022-11-12T22:28:35;11.10;99.90
10149;DHT22;5115;50.920;6.376;2022-11-12T22:31:06;11.10;99.90
10149;DHT22;5115;50.920;6.376;2022-11-12T22:33:33;11.20;99.90
10149;DHT22;5115;50.920;6.376;2022-11-12T22:36:04;11.20;99.90
10149;DHT22;5115;50.920;6.376;2022-11-12T22:38:44;11.20;99.90
10149;DHT22;5115;50.920;6.376;2022-11-12T22:41:12;11.20;99.90
10149;DHT22;5115;50.920;6.376;2022-11-12T22:43:38;11.20;99.90
10149;DHT22;5115;50.920;6.376;2022-11-12T22:46:10;11.10;99.90
10149;DHT22;5115;50.920;6.376;2022-11-12T22:48:36;11.10;99.90
10149;DHT22;5115;50.920;6.376;2022-11-12T22:51:06;11.00;99.90
10149;DHT22;5115;50.920;6.376;2022-11-12T22:53:32;11.80;99.90
10149;DHT22;5115;50.920;6.376;2022-11-12T22:56:07;10.90;99.90
10149;DHT22;5115;50.920;6.376;2022-11-12T22:58:39;10.80;99.90
10149;DHT22;5115;50.920;6.376;2022-11-12T23:01:07;10.80;99.90
10149;DHT22;5115;50.920;6.376;2022-11-12T23:03:33;10.70;99.90
10149;DHT22;5115;50.920;6.376;2022-11-12T23:06:00;10.60;99.90
10149;DHT22;5115;50.920;6.376;2022-11-12T23:08:27;10.60;99.90
10149;DHT22;5115;50.920;6.376;2022-11-12T23:10:53;10.60;99.90
10149;DHT22;5115;50.920;6.376;2022-11-12T23:13:19;10.50;99.90
10149;DHT22;5115;50.920;6.376;2022-11-12T23:15:45;10.50;99.90
10149;DHT22;5115;50.920;6.376;2022-11-12T23:18:11;10.50;99.90
10149;DHT22;5115;50.920;6.376;2022-11-12T23:20:37;10.50;99.90
10149;DHT22;5115;50.920;6.376;2022-11-12T23:23:02;10.50;99.90
10149;DHT22;5115;50.920;6.376;2022-11-12T23:25:28;10.50;99.90
10149;DHT22;5115;50.920;6.376;2022-11-12T23:27:56;10.50;99.90
10149;DHT22;5115;50.920;6.376;2022-11-12T23:30:22;10.50;99.90
10149;DHT22;5115;50.920;6.376;2022-11-12T23:32:47;10.50;99.90
10149;DHT22;5115;50.920;6.376;2022-11-12T23:35:13;10.40;99.90
10149;DHT22;5115;50.920;6.376;2022-11-12T23:37:38;10.40;99.90
10149;DHT22;5115;50.920;6.376;2022-11-12T23:40:04;10.30;99.90
10149;DHT22;5115;50.920;6.376;2022-11-12T23:42:30;10.20;99.90